Abbott Park, Illinois
Current Conditions -  °F | °C
As of 11:55 AM on Friday 28 Nov 2014 (Local Time) from KUGN Reporting Station
Overcast Overcast  
Wind Chill: -10°   Ceiling: 7500
Heat Index: -4°   Visibility: 10mi
Dew Point: -9°   Wind: 10mph
Humidity: 66%   Direction: 140°SE
Pressure: 30.08"   Gusts: NA
Location:  42.3271°N, 87.865°W
Report Text: KUGN 281755Z 14009KT 10SM BKN075 OVC110 M04/M09 A3008 RMK AO2 PRESFR SLP208 60000 T10391094 11039 21078 58043
Loading
Personal Weather Stations






























Interactive Weather Map New forecast layout! Learn more

10-Day Weather Forecast

Advertisements
Track Severe Weather on mobile